Time;durP1;ratioP1;P1;durP2;ratioP2;P2;SDS_P1;SDS_P2;PMS_P1;PMS_P2;Temp;Humidity;BMP_temperature;BMP_pressure;BME280_temperature;BME280_humidity;BME280_pressure;Samples;Min_cycle;Max_cycle;Signal;HPM_P1;HPM_P2
2022/12/01 00:02:05;;;;;;;0.50;0.05;;;;;;;4.84;100.00;102500.69;5229866;28;20061;-66
2022/12/01 00:04:36;;;;;;;0.82;0.13;;;;;;;4.85;100.00;102503.28;5233510;28;20503;-66
2022/12/01 00:07:07;;;;;;;0.60;0.10;;;;;;;4.88;100.00;102504.97;5226939;28;20475;-66
2022/12/01 00:12:29;;;;;;;0.30;0.00;;;;;;;4.87;100.00;102497.94;5231320;28;20077;-66
2022/12/01 00:15:00;;;;;;;1.35;0.10;;;;;;;4.87;100.00;102498.84;5235672;28;20442;-66
2022/12/01 00:17:31;;;;;;;0.68;0.25;;;;;;;4.84;100.00;102495.41;5234463;28;20037;-66
2022/12/01 00:20:05;;;;;;;0.55;0.10;;;;;;;4.84;100.00;102505.97;5233401;28;20033;-66
2022/12/01 00:22:36;;;;;;;0.73;0.10;;;;;;;4.83;100.00;102491.88;5233189;28;20038;-66
2022/12/01 00:25:08;;;;;;;0.43;0.20;;;;;;;4.83;100.00;102491.88;5231773;28;20670;-67
2022/12/01 00:27:39;;;;;;;0.52;0.10;;;;;;;4.83;100.00;102499.81;5233526;28;20038;-66
2022/12/01 00:30:11;;;;;;;0.60;0.10;;;;;;;4.83;100.00;102493.66;5232071;28;20041;-66
2022/12/01 00:32:43;;;;;;;0.88;0.10;;;;;;;4.85;100.00;102499.75;5234653;28;20033;-68
2022/12/01 00:35:16;;;;;;;0.10;0.00;;;;;;;4.85;100.00;102503.28;5232566;28;20048;-66
2022/12/01 00:37:47;;;;;;;0.52;0.10;;;;;;;4.87;100.00;102493.53;5230872;28;20044;-66
2022/12/01 00:40:18;;;;;;;0.32;0.08;;;;;;;4.87;100.00;102492.66;5229021;28;20037;-66
2022/12/01 00:42:50;;;;;;;0.10;0.00;;;;;;;4.84;100.00;102498.91;5239568;28;20032;-66
2022/12/01 00:45:21;;;;;;;0.60;0.15;;;;;;;4.84;100.00;102492.75;5231701;28;20112;-66
2022/12/01 00:47:52;;;;;;;0.43;0.10;;;;;;;4.84;100.00;102492.75;5235282;28;20040;-66
2022/12/01 00:50:23;;;;;;;1.08;0.10;;;;;;;4.84;100.00;102493.59;5231997;28;20041;-66
2022/12/01 00:52:55;;;;;;;0.47;0.10;;;;;;;4.85;100.00;102497.13;5225547;28;20026;-66
2022/12/01 00:55:26;;;;;;;0.20;0.10;;;;;;;4.86;100.00;102498.88;5229293;28;20116;-66
2022/12/01 00:57:57;;;;;;;0.65;0.00;;;;;;;4.84;100.00;102488.31;5232214;28;20566;-66
2022/12/01 01:00:28;;;;;;;0.88;0.10;;;;;;;4.83;100.00;102496.28;5234703;28;20446;-66
2022/12/01 01:03:00;;;;;;;0.82;0.10;;;;;;;4.82;100.00;102502.50;5237190;28;20060;-65
2022/12/01 01:05:35;;;;;;;0.65;0.20;;;;;;;4.82;100.00;102503.34;5266785;28;20025;-66
2022/12/01 01:08:12;;;;;;;0.80;0.10;;;;;;;4.81;100.00;102500.75;5235623;28;20032;-66
2022/12/01 01:10:45;;;;;;;0.15;0.00;;;;;;;4.81;100.00;102506.03;5235873;28;20041;-66
2022/12/01 01:13:17;;;;;;;1.17;0.20;;;;;;;4.81;100.00;102508.69;5235696;28;20030;-66
2022/12/01 01:15:57;;;;;;;0.70;0.20;;;;;;;4.80;100.00;102515.75;5234395;28;20511;-66
2022/12/01 01:18:29;;;;;;;0.45;0.10;;;;;;;4.77;100.00;102518.47;5243017;28;20033;-66
2022/12/01 01:21:05;;;;;;;1.15;0.30;;;;;;;4.79;100.00;102521.94;5238985;28;20117;-66
2022/12/01 01:23:36;;;;;;;0.73;0.20;;;;;;;4.79;100.00;102514.00;5233561;28;20041;-66
2022/12/01 01:26:18;;;;;;;1.08;0.20;;;;;;;4.78;100.00;102522.00;5234685;28;20041;-66
2022/12/01 01:28:50;;;;;;;1.08;0.10;;;;;;;4.77;100.00;102520.25;5237287;28;20391;-66
2022/12/01 01:31:23;;;;;;;0.80;0.13;;;;;;;4.82;100.00;102528.94;5236644;28;20041;-66
2022/12/01 01:33:56;;;;;;;0.80;0.30;;;;;;;4.81;100.00;102533.34;5235906;28;20116;-66
2022/12/01 01:36:27;;;;;;;0.80;0.20;;;;;;;4.82;100.00;102521.00;5235872;28;20038;-66
2022/12/01 01:38:59;;;;;;;0.95;0.30;;;;;;;4.82;100.00;102531.59;5234731;28;20026;-66
2022/12/01 01:41:31;;;;;;;2.78;0.32;;;;;;;4.84;100.00;102541.22;5231320;28;20061;-66
2022/12/01 01:44:23;;;;;;;0.60;0.20;;;;;;;4.85;100.00;102537.69;5235016;28;20441;-66
2022/12/01 01:46:54;;;;;;;0.60;0.28;;;;;;;4.85;100.00;102535.03;5234603;28;20033;-66
2022/12/01 01:49:25;;;;;;;1.75;0.20;;;;;;;4.86;100.00;102531.47;5238124;28;20483;-66
2022/12/01 01:51:57;;;;;;;0.68;0.20;;;;;;;4.88;100.00;102531.44;5232981;28;20043;-66
2022/12/01 01:54:36;;;;;;;0.50;0.10;;;;;;;4.86;100.00;102531.47;5229068;28;20057;-66
2022/12/01 01:57:10;;;;;;;0.60;0.10;;;;;;;4.85;100.00;102535.03;5229718;28;20490;-66
2022/12/01 01:59:46;;;;;;;0.40;0.10;;;;;;;4.83;100.00;102535.94;5229456;28;20044;-66
2022/12/01 02:02:17;;;;;;;0.77;0.17;;;;;;;4.84;100.00;102532.41;5234652;28;20034;-66
2022/12/01 02:04:55;;;;;;;0.73;0.30;;;;;;;4.81;100.00;102535.97;5232317;28;20026;-66
2022/12/01 02:07:27;;;;;;;0.90;0.30;;;;;;;4.79;100.00;102532.50;5230171;28;20068;-66
2022/12/01 02:09:58;;;;;;;0.80;0.35;;;;;;;4.79;100.00;102540.44;5229674;28;20570;-66
2022/12/01 02:12:54;;;;;;;1.55;0.32;;;;;;;4.78;100.00;102536.09;5234362;28;20026;-66
2022/12/01 02:15:49;;;;;;;2.17;0.20;;;;;;;4.77;100.00;102536.13;5233520;28;20040;-66
2022/12/01 02:18:26;;;;;;;;;;;;;;;4.76;100.00;102534.41;5229272;28;20029;-66
2022/12/01 02:21:36;;;;;;;1.58;0.25;;;;;;;4.76;100.00;102531.75;5230485;28;20299;-66
2022/12/01 02:24:46;;;;;;;2.13;0.13;;;;;;;4.77;100.00;102541.41;5229802;28;20416;-66
2022/12/01 02:27:27;;;;;;;1.20;0.10;;;;;;;4.78;100.00;102533.44;5234358;28;20033;-66
2022/12/01 02:30:16;;;;;;;0.68;0.10;;;;;;;4.79;100.00;102535.16;5232795;28;20068;-66
2022/12/01 02:33:08;;;;;;;0.52;0.20;;;;;;;4.80;100.00;102538.69;5233289;28;20117;-66
2022/12/01 02:35:53;;;;;;;0.40;0.00;;;;;;;4.81;100.00;102530.69;5233801;28;20032;-66
2022/12/01 02:38:27;;;;;;;0.40;0.10;;;;;;;4.85;100.00;102539.44;5230921;28;20036;-66
2022/12/01 02:41:11;;;;;;;0.15;0.00;;;;;;;4.83;100.00;102534.19;5235414;28;20438;-66
2022/12/01 02:43:52;;;;;;;1.77;0.23;;;;;;;4.82;100.00;102539.53;5234189;28;20041;-66
2022/12/01 02:46:32;;;;;;;1.85;0.30;;;;;;;4.81;100.00;102541.28;5233473;28;20059;-66
2022/12/01 02:49:12;;;;;;;0.70;0.10;;;;;;;4.81;100.00;102532.47;5233073;28;20030;-66
2022/12/01 02:51:44;;;;;;;1.10;0.20;;;;;;;4.82;100.00;102536.88;5233244;28;20025;-66
2022/12/01 02:54:16;;;;;;;1.98;0.20;;;;;;;4.80;100.00;102536.91;5234114;28;20053;-66
2022/12/01 02:56:51;;;;;;;1.30;0.20;;;;;;;4.81;100.00;102538.63;5225734;28;20103;-66
2022/12/01 02:59:22;;;;;;;1.15;0.20;;;;;;;4.80;100.00;102525.47;5228752;28;20178;-68
2022/12/01 03:02:14;;;;;;;1.67;0.30;;;;;;;4.81;100.00;102530.69;5236587;28;20158;-66
2022/12/01 03:05:04;;;;;;;1.30;0.08;;;;;;;4.81;100.00;102540.41;5230364;28;20048;-66
2022/12/01 03:07:47;;;;;;;1.00;0.20;;;;;;;4.80;100.00;102543.97;5226709;28;20125;-66
2022/12/01 03:10:33;;;;;;;0.68;0.10;;;;;;;4.79;100.00;102540.44;5230714;28;20448;-66
2022/12/01 03:13:30;;;;;;;1.90;0.22;;;;;;;4.81;100.00;102535.97;5227427;28;20022;-66
2022/12/01 03:16:37;;;;;;;0.20;0.00;;;;;;;4.80;100.00;102534.25;5231513;28;20028;-66
2022/12/01 03:19:36;;;;;;;0.38;0.00;;;;;;;4.80;100.00;102539.56;5229969;28;20495;-66
2022/12/01 03:22:17;;;;;;;0.60;0.10;;;;;;;4.80;100.00;102541.34;5235663;28;20036;-66
2022/12/01 03:24:52;;;;;;;0.75;0.30;;;;;;;4.79;100.00;102543.09;5228307;28;20034;-66
2022/12/01 03:27:28;;;;;;;0.45;0.00;;;;;;;4.81;100.00;102538.63;5229012;28;20398;-66
2022/12/01 03:30:02;;;;;;;1.65;0.20;;;;;;;4.82;100.00;102536.88;5236478;28;20395;-66
2022/12/01 03:32:40;;;;;;;1.55;0.00;;;;;;;4.83;100.00;102539.50;5238861;28;20105;-66
2022/12/01 03:35:31;;;;;;;1.30;0.10;;;;;;;4.85;100.00;102545.59;5230315;28;20471;-66
2022/12/01 03:38:30;;;;;;;0.75;0.30;;;;;;;4.83;100.00;102541.25;5231255;28;20387;-66
2022/12/01 03:41:13;;;;;;;0.40;0.00;;;;;;;4.84;100.00;102535.06;5233769;28;20041;-66
2022/12/01 03:43:52;;;;;;;1.75;0.13;;;;;;;4.83;100.00;102538.59;5235389;28;20375;-66
2022/12/01 03:46:43;;;;;;;0.90;0.20;;;;;;;4.83;100.00;102542.13;5232054;28;20147;-66
2022/12/01 03:49:17;;;;;;;0.68;0.28;;;;;;;4.83;100.00;102535.94;5231023;28;20467;-66
2022/12/01 03:51:57;;;;;;;0.35;0.10;;;;;;;4.82;100.00;102540.38;5231788;28;20029;-66
2022/12/01 03:54:45;;;;;;;0.30;0.08;;;;;;;4.82;100.00;102540.38;5233801;28;20049;-66
2022/12/01 03:57:22;;;;;;;1.35;0.13;;;;;;;4.82;100.00;102539.53;5229239;28;20472;-66
2022/12/01 03:59:54;;;;;;;1.65;0.20;;;;;;;4.81;100.00;102537.78;5249764;28;20033;-66
2022/12/01 04:02:27;;;;;;;1.02;0.10;;;;;;;4.80;100.00;102542.19;5235392;28;20087;-66
2022/12/01 04:04:58;;;;;;;0.57;0.05;;;;;;;4.81;100.00;102535.13;5232259;28;20458;-66
2022/12/01 04:07:29;;;;;;;0.80;0.30;;;;;;;4.83;100.00;102539.50;5229172;28;20041;-66
2022/12/01 04:10:01;;;;;;;0.40;0.08;;;;;;;4.85;100.00;102539.44;5235383;28;20035;-66
2022/12/01 04:12:32;;;;;;;1.52;0.10;;;;;;;4.85;100.00;102542.97;5235464;28;20029;-67
2022/12/01 04:15:13;;;;;;;0.82;0.10;;;;;;;4.86;100.00;102547.31;5230254;28;20025;-66
2022/12/01 04:17:44;;;;;;;0.30;0.10;;;;;;;4.87;100.00;102542.91;5230432;28;20037;-66
2022/12/01 04:20:16;;;;;;;1.08;0.10;;;;;;;4.88;100.00;102552.59;5236183;28;20030;-66
2022/12/01 04:22:48;;;;;;;0.52;0.05;;;;;;;4.89;100.00;102543.75;5231254;28;20474;-66
2022/12/01 04:25:19;;;;;;;0.47;0.10;;;;;;;4.89;100.00;102544.63;5233877;28;20452;-66
2022/12/01 04:27:50;;;;;;;0.40;0.10;;;;;;;4.89;100.00;102539.31;5230061;28;20033;-66
2022/12/01 04:30:22;;;;;;;0.10;0.00;;;;;;;4.89;100.00;102536.69;5234422;28;20483;-66
2022/12/01 04:32:53;;;;;;;0.60;0.13;;;;;;;4.89;100.00;102541.13;5235719;28;20479;-66
2022/12/01 04:35:24;;;;;;;0.57;0.00;;;;;;;4.89;100.00;102533.19;5237170;28;20518;-66
2022/12/01 04:37:55;;;;;;;0.30;0.10;;;;;;;4.89;100.00;102543.75;5239917;28;20064;-66
2022/12/01 04:40:27;;;;;;;1.17;0.10;;;;;;;4.89;100.00;102543.75;5235544;28;20037;-66
2022/12/01 04:42:58;;;;;;;0.25;0.00;;;;;;;4.89;100.00;102543.75;5234461;28;20544;-67
2022/12/01 04:45:29;;;;;;;0.00;0.00;;;;;;;4.88;100.00;102539.34;5237822;28;20039;-66
2022/12/01 04:48:00;;;;;;;0.52;0.10;;;;;;;4.89;100.00;102539.31;5233869;28;20036;-66
2022/12/01 04:50:32;;;;;;;0.45;0.00;;;;;;;4.88;100.00;102534.06;5236519;28;20033;-66
2022/12/01 04:53:03;;;;;;;0.17;0.00;;;;;;;4.88;100.00;102537.56;5235617;28;20029;-66
2022/12/01 04:55:38;;;;;;;1.35;0.10;;;;;;;4.86;100.00;102542.03;5236049;28;20075;-66
2022/12/01 04:58:09;;;;;;;0.20;0.00;;;;;;;4.87;100.00;102535.84;5234770;28;20037;-66
2022/12/01 05:00:40;;;;;;;0.45;0.10;;;;;;;4.88;100.00;102534.94;5237075;28;20060;-66
2022/12/01 05:03:12;;;;;;;0.55;0.10;;;;;;;4.89;100.00;102538.47;5235214;28;20033;-65
2022/12/01 05:05:43;;;;;;;0.30;0.00;;;;;;;4.87;100.00;102535.84;5229327;28;20044;-66
2022/12/01 05:08:14;;;;;;;0.30;0.00;;;;;;;4.86;100.00;102533.25;5229799;28;20571;-66
2022/12/01 05:10:45;;;;;;;1.02;0.10;;;;;;;4.87;100.00;102532.31;5230276;28;20033;-67
2022/12/01 05:13:18;;;;;;;0.05;0.00;;;;;;;4.85;100.00;102535.03;5236506;28;20034;-66
2022/12/01 05:15:49;;;;;;;0.10;0.00;;;;;;;4.86;100.00;102534.09;5226762;28;20029;-66
2022/12/01 05:18:21;;;;;;;0.20;0.00;;;;;;;4.86;100.00;102528.81;5233462;28;20095;-66
2022/12/01 05:20:58;;;;;;;0.22;0.10;;;;;;;4.88;100.00;102528.78;5235653;28;20387;-66
2022/12/01 05:23:31;;;;;;;0.17;0.05;;;;;;;4.88;100.00;102542.88;5234976;28;20040;-66
2022/12/01 05:26:06;;;;;;;1.60;0.08;;;;;;;4.89;100.00;102547.25;5235999;28;20537;-66
2022/12/01 05:28:37;;;;;;;0.10;0.00;;;;;;;4.89;100.00;102541.13;5240733;28;20029;-66
2022/12/01 05:31:08;;;;;;;0.08;0.00;;;;;;;4.89;100.00;102541.97;5229925;28;20609;-66
2022/12/01 05:33:40;;;;;;;0.52;0.05;;;;;;;4.89;100.00;102543.75;5246292;28;20075;-66
2022/12/01 05:36:11;;;;;;;0.32;0.00;;;;;;;4.88;100.00;102545.50;5235474;28;20029;-66
2022/12/01 05:38:42;;;;;;;2.28;0.10;;;;;;;4.87;100.00;102549.09;5234434;28;20590;-66
2022/12/01 05:41:14;;;;;;;0.75;0.00;;;;;;;4.87;100.00;102554.38;5228027;28;20392;-66
2022/12/01 05:43:45;;;;;;;0.10;0.00;;;;;;;4.86;100.00;102554.41;5235706;28;20029;-67
2022/12/01 05:46:17;;;;;;;0.10;0.00;;;;;;;4.86;100.00;102554.41;5227367;28;20516;-66
2022/12/01 05:48:48;;;;;;;0.28;0.00;;;;;;;4.83;100.00;102546.53;5231570;28;20018;-66
2022/12/01 05:51:19;;;;;;;0.20;0.00;;;;;;;4.83;100.00;102543.88;5234547;28;20506;-66
2022/12/01 05:53:51;;;;;;;0.85;0.10;;;;;;;4.82;100.00;102536.88;5231541;28;20071;-66
2022/12/01 05:56:22;;;;;;;0.15;0.00;;;;;;;4.80;100.00;102549.28;5231740;28;20033;-66
2022/12/01 05:58:53;;;;;;;0.17;0.00;;;;;;;4.78;100.00;102549.31;5232409;28;20349;-65
2022/12/01 06:01:24;;;;;;;0.22;0.00;;;;;;;4.79;100.00;102550.16;5229922;28;20029;-66
2022/12/01 06:03:56;;;;;;;0.32;0.00;;;;;;;4.79;100.00;102551.03;5229561;28;20029;-66
2022/12/01 06:06:27;;;;;;;0.68;0.08;;;;;;;4.81;100.00;102554.50;5236405;28;20083;-65
2022/12/01 06:08:58;;;;;;;1.65;0.25;;;;;;;4.80;100.00;102558.06;5230882;28;20035;-65
2022/12/01 06:11:29;;;;;;;0.40;0.10;;;;;;;4.80;100.00;102557.22;5235992;28;20044;-66
2022/12/01 06:14:01;;;;;;;0.20;0.10;;;;;;;4.78;100.00;102548.44;5230042;28;20029;-67
2022/12/01 06:16:32;;;;;;;0.82;0.20;;;;;;;4.80;100.00;102557.22;5231111;28;20075;-65
2022/12/01 06:19:03;;;;;;;0.35;0.00;;;;;;;4.81;100.00;102551.00;5227106;28;20033;-66
2022/12/01 06:21:35;;;;;;;0.17;0.00;;;;;;;4.80;100.00;102551.91;5230321;28;20090;-66
2022/12/01 06:24:06;;;;;;;0.00;0.00;;;;;;;4.79;100.00;102558.09;5224760;28;20859;-65
2022/12/01 06:26:37;;;;;;;1.75;0.32;;;;;;;4.80;100.00;102549.28;5233417;28;20036;-66
2022/12/01 06:29:09;;;;;;;0.60;0.10;;;;;;;4.80;100.00;102546.63;5228151;28;20477;-66
2022/12/01 06:31:41;;;;;;;0.35;0.15;;;;;;;4.81;100.00;102556.28;5234736;28;20475;-68
2022/12/01 06:34:12;;;;;;;0.73;0.20;;;;;;;4.81;100.00;102557.16;5237302;28;20479;-66
2022/12/01 06:36:44;;;;;;;0.20;0.00;;;;;;;4.80;100.00;102551.91;5232943;28;20333;-67
2022/12/01 06:39:15;;;;;;;0.47;0.10;;;;;;;4.79;100.00;102555.44;5232089;28;20025;-66
2022/12/01 06:41:47;;;;;;;0.68;0.10;;;;;;;4.78;100.00;102557.22;5235101;28;20025;-66
2022/12/01 06:44:18;;;;;;;0.20;0.00;;;;;;;4.78;100.00;102557.22;5233796;28;20045;-66
2022/12/01 06:46:51;;;;;;;0.63;0.10;;;;;;;4.76;100.00;102558.19;5232727;28;20034;-66
2022/12/01 06:49:23;;;;;;;0.80;0.10;;;;;;;4.78;100.00;102556.38;5233321;28;20037;-65
2022/12/01 06:51:54;;;;;;;0.80;0.10;;;;;;;4.79;100.00;102556.31;5234285;28;20424;-65
2022/12/01 06:54:25;;;;;;;0.50;0.10;;;;;;;4.79;100.00;102564.25;5232764;28;20125;-66
2022/12/01 06:56:57;;;;;;;0.52;0.10;;;;;;;4.79;100.00;102566.88;5231531;28;20056;-66
2022/12/01 06:59:28;;;;;;;0.75;0.13;;;;;;;4.78;100.00;102567.81;5232602;28;20036;-66
2022/12/01 07:02:01;;;;;;;0.17;0.00;;;;;;;4.80;100.00;102575.72;5232428;28;20482;-66
2022/12/01 07:04:33;;;;;;;0.73;0.17;;;;;;;4.80;100.00;102579.22;5228424;28;20021;-66
2022/12/01 07:07:04;;;;;;;1.25;0.10;;;;;;;4.81;100.00;102580.09;5231676;28;20542;-66
2022/12/01 07:09:36;;;;;;;1.45;0.20;;;;;;;4.80;100.00;102579.22;5229911;28;20384;-66
2022/12/01 07:12:07;;;;;;;1.42;0.47;;;;;;;4.82;100.00;102587.97;5225866;28;20037;-66
2022/12/01 07:14:41;;;;;;;0.85;0.20;;;;;;;4.81;100.00;102588.88;5228827;28;20033;-66
2022/12/01 07:17:12;;;;;;;0.50;0.00;;;;;;;4.82;100.00;102587.13;5233571;28;20041;-66
2022/12/01 07:19:43;;;;;;;1.30;0.40;;;;;;;4.82;100.00;102584.47;5231354;28;20934;-66
2022/12/01 07:22:15;;;;;;;0.88;0.13;;;;;;;4.82;100.00;102595.06;5230785;28;20576;-66
2022/12/01 07:24:46;;;;;;;1.67;0.30;;;;;;;4.82;100.00;102590.63;5235200;28;20057;-66
2022/12/01 07:27:17;;;;;;;0.38;0.10;;;;;;;4.84;100.00;102598.53;5232451;28;20116;-66
2022/12/01 07:29:48;;;;;;;1.65;0.10;;;;;;;4.85;100.00;102597.59;5225415;28;20116;-66
2022/12/01 07:32:20;;;;;;;0.50;0.10;;;;;;;4.85;100.00;102601.16;5227462;28;20506;-66
2022/12/01 07:34:51;;;;;;;0.40;0.10;;;;;;;4.87;100.00;102601.09;5235966;28;20027;-66
2022/12/01 07:37:22;;;;;;;1.02;0.20;;;;;;;4.88;100.00;102601.06;5233961;28;20125;-66
2022/12/01 07:39:54;;;;;;;1.83;0.10;;;;;;;4.90;100.00;102595.72;5233022;28;20028;-66
2022/12/01 07:42:25;;;;;;;1.27;0.30;;;;;;;4.90;100.00;102596.59;5234858;28;20506;-66
2022/12/01 07:44:56;;;;;;;0.82;0.13;;;;;;;4.91;100.00;102603.63;5234255;28;20472;-66
2022/12/01 07:47:27;;;;;;;1.08;0.17;;;;;;;4.91;100.00;102603.63;5231940;28;20506;-66
2022/12/01 07:49:59;;;;;;;0.93;0.50;;;;;;;4.90;100.00;102603.66;5232616;28;20061;-66
2022/12/01 07:52:30;;;;;;;1.35;0.30;;;;;;;4.91;100.00;102608.91;5232087;28;20029;-66
2022/12/01 07:55:01;;;;;;;0.40;0.10;;;;;;;4.91;100.00;102606.28;5233746;28;20041;-66
2022/12/01 07:57:32;;;;;;;1.75;0.43;;;;;;;4.94;100.00;102615.03;5228829;28;20030;-65
2022/12/01 08:00:04;;;;;;;0.85;0.22;;;;;;;4.94;100.00;102612.41;5232888;28;20491;-65
2022/12/01 08:02:36;;;;;;;1.45;0.20;;;;;;;4.94;100.00;102607.09;5231660;28;20034;-65
2022/12/01 08:05:07;;;;;;;1.95;0.55;;;;;;;4.94;100.00;102615.91;5226777;28;20040;-65
2022/12/01 08:07:39;;;;;;;0.75;0.20;;;;;;;4.96;100.00;102626.44;5234846;28;20072;-65
2022/12/01 08:10:10;;;;;;;1.85;0.30;;;;;;;4.96;100.00;102622.03;5242074;28;20026;-65
2022/12/01 08:12:41;;;;;;;1.13;0.32;;;;;;;4.95;100.00;102617.66;5237708;28;20380;-65
2022/12/01 08:15:13;;;;;;;1.88;0.20;;;;;;;4.97;100.00;102626.44;5239910;28;20021;-66
2022/12/01 08:17:44;;;;;;;2.03;0.35;;;;;;;5.01;100.00;102627.22;5241343;28;20025;-65
2022/12/01 08:20:16;;;;;;;0.82;0.15;;;;;;;5.03;100.00;102628.91;5241153;28;20402;-65
2022/12/01 08:22:47;;;;;;;1.20;0.10;;;;;;;5.03;100.00;102628.06;5237761;28;20029;-65
2022/12/01 08:25:18;;;;;;;0.32;0.00;;;;;;;5.04;100.00;102624.47;5227727;28;20041;-65
2022/12/01 08:27:49;;;;;;;0.77;0.13;;;;;;;5.04;100.00;102632.41;5235302;28;20503;-66
2022/12/01 08:30:21;;;;;;;0.73;0.10;;;;;;;5.04;100.00;102635.97;5235640;28;20502;-65
2022/12/01 08:32:54;;;;;;;0.93;0.17;;;;;;;5.05;100.00;102634.16;5238577;28;20108;-66
2022/12/01 08:35:26;;;;;;;0.15;0.00;;;;;;;5.06;100.00;102636.78;5238989;28;20025;-66
2022/12/01 08:37:57;;;;;;;1.00;0.20;;;;;;;5.06;100.00;102643.81;5237890;28;20510;-65
2022/12/01 08:40:28;;;;;;;0.73;0.10;;;;;;;5.05;100.00;102635.03;5241849;28;20037;-65
2022/12/01 08:42:59;;;;;;;0.85;0.10;;;;;;;5.06;100.00;102635.91;5229572;28;20091;-65
2022/12/01 08:45:31;;;;;;;0.73;0.10;;;;;;;5.09;100.00;102641.97;5237820;28;20109;-65
2022/12/01 08:48:02;;;;;;;1.08;0.20;;;;;;;5.09;100.00;102633.19;5233581;28;20365;-65
2022/12/01 08:50:33;;;;;;;0.80;0.15;;;;;;;5.11;100.00;102642.81;5231611;28;20391;-65
2022/12/01 08:53:05;;;;;;;0.50;0.00;;;;;;;5.12;100.00;102635.78;5239826;28;20474;-65
2022/12/01 08:55:36;;;;;;;2.15;0.20;;;;;;;5.12;100.00;102641.06;5231054;28;20752;-65
2022/12/01 08:58:07;;;;;;;0.63;0.22;;;;;;;5.11;100.00;102634.00;5235177;28;20037;-65
2022/12/01 09:00:38;;;;;;;0.68;0.30;;;;;;;5.12;100.00;102643.72;5230472;28;20417;-65
2022/12/01 09:03:09;;;;;;;0.93;0.28;;;;;;;5.16;100.00;102644.47;5240764;28;20036;-65
2022/12/01 09:05:41;;;;;;;0.47;0.13;;;;;;;5.18;100.00;102637.38;5225860;28;20092;-66
2022/12/01 09:08:30;;;;;;;0.25;0.03;;;;;;;5.19;100.00;102636.47;5240090;28;20028;-66
2022/12/01 09:11:05;;;;;;;0.50;0.10;;;;;;;5.20;100.00;102644.38;5237941;28;20489;-66
2022/12/01 09:13:38;;;;;;;0.63;0.10;;;;;;;5.22;100.00;102650.50;5238361;28;20057;-66
2022/12/01 09:16:12;;;;;;;0.57;0.10;;;;;;;5.24;100.00;102639.88;5246204;28;20075;-66
2022/12/01 09:18:45;;;;;;;0.68;0.10;;;;;;;5.25;100.00;102644.25;5235988;28;20407;-65
2022/12/01 09:21:19;;;;;;;0.10;0.00;;;;;;;5.26;100.00;102652.16;5235782;28;20040;-65
2022/12/01 09:23:51;;;;;;;;;;;;;;;5.26;100.00;102652.16;5233928;28;20021;-65
2022/12/01 09:26:22;;;;;;;0.25;0.03;;;;;;;5.26;100.00;102651.28;5234142;28;20374;-66
2022/12/01 09:28:56;;;;;;;1.15;0.20;;;;;;;5.29;100.00;102652.09;5234983;28;20037;-65
2022/12/01 09:31:28;;;;;;;0.73;0.10;;;;;;;5.32;100.00;102651.13;5231793;28;20053;-67
2022/12/01 09:34:01;;;;;;;0.80;0.10;;;;;;;5.35;100.00;102653.72;5236772;28;20096;-66
2022/12/01 09:36:34;;;;;;;0.32;0.10;;;;;;;5.34;100.00;102659.91;5237637;28;20029;-65
2022/12/01 09:39:07;;;;;;;0.68;0.05;;;;;;;5.35;100.00;102655.47;5228991;28;20517;-66
2022/12/01 09:41:42;;;;;;;1.85;0.20;;;;;;;5.36;100.00;102666.03;5231543;28;20037;-66
2022/12/01 09:44:26;;;;;;;0.22;0.05;;;;;;;5.36;100.00;102662.50;5234090;28;20037;-65
2022/12/01 09:47:02;;;;;;;1.50;0.13;;;;;;;5.37;100.00;102662.47;5236692;28;20029;-65
2022/12/01 09:49:48;;;;;;;1.25;0.22;;;;;;;5.39;100.00;102659.78;5232940;28;20058;-65
2022/12/01 09:52:21;;;;;;;0.85;0.20;;;;;;;5.36;100.00;102659.88;5234040;28;20033;-66
2022/12/01 09:54:54;;;;;;;0.50;0.10;;;;;;;5.37;100.00;102653.66;5234119;28;20069;-65
2022/12/01 09:57:39;;;;;;;0.68;0.10;;;;;;;5.37;100.00;102651.91;5236005;28;20105;-65
2022/12/01 10:00:15;;;;;;;1.38;0.25;;;;;;;5.38;100.00;102655.41;5226967;28;20028;-65
2022/12/01 10:02:57;;;;;;;0.98;0.15;;;;;;;5.38;100.00;102645.69;5233308;28;20037;-66
2022/12/01 10:05:39;;;;;;;1.20;0.30;;;;;;;5.40;100.00;102640.34;5242423;28;20048;-66
2022/12/01 10:08:18;;;;;;;0.57;0.10;;;;;;;5.43;100.00;102645.56;5232054;28;20403;-65
2022/12/01 10:10:53;;;;;;;0.30;0.10;;;;;;;5.43;100.00;102650.88;5230933;28;20030;-65
2022/12/01 10:13:27;;;;;;;0.88;0.25;;;;;;;5.42;100.00;102649.13;5230888;28;20036;-65
2022/12/01 10:16:09;;;;;;;0.88;0.13;;;;;;;5.43;100.00;102646.44;5231633;28;20109;-66
2022/12/01 10:19:00;;;;;;;1.13;0.17;;;;;;;5.45;100.00;102641.09;5235494;28;20578;-66
2022/12/01 10:22:06;;;;;;;3.00;0.45;;;;;;;5.46;100.00;102646.34;5218092;28;20029;-65
2022/12/01 10:25:05;;;;;;;1.60;0.30;;;;;;;5.49;100.00;102645.41;5226070;28;20026;-66
2022/12/01 10:27:48;;;;;;;0.90;0.15;;;;;;;5.54;100.00;102645.28;5231488;28;20033;-66
2022/12/01 10:30:22;;;;;;;0.70;0.13;;;;;;;5.57;100.00;102637.25;5223881;28;20025;-65
2022/12/01 10:33:21;;;;;;;0.57;0.30;;;;;;;5.61;100.00;102629.19;5229027;28;20036;-65
2022/12/01 10:35:52;;;;;;;0.98;0.22;;;;;;;5.63;100.00;102632.66;5230496;28;20032;-66
2022/12/01 10:38:34;;;;;;;0.80;0.32;;;;;;;5.67;100.00;102633.44;5234192;28;20033;-65
2022/12/01 10:41:13;;;;;;;0.43;0.20;;;;;;;5.71;100.00;102621.84;5232075;28;20032;-66
2022/12/01 10:43:49;;;;;;;1.10;0.20;;;;;;;5.66;100.00;102619.34;5233528;28;20112;-65
2022/12/01 10:46:51;;;;;;;1.10;0.20;;;;;;;5.66;100.00;102618.47;5231216;28;20518;-66
2022/12/01 10:49:40;;;;;;;0.25;0.08;;;;;;;5.64;100.00;102610.56;5229076;28;20715;-65
2022/12/01 10:52:34;;;;;;;0.75;0.20;;;;;;;5.62;100.00;102615.03;5232979;28;20034;-65
2022/12/01 10:55:26;;;;;;;0.65;0.10;;;;;;;5.61;100.00;102618.59;5230057;28;20575;-66
2022/12/01 10:58:01;;;;;;;1.00;0.15;;;;;;;5.60;100.00;102616.88;5233134;28;20042;-65
2022/12/01 11:00:39;;;;;;;0.65;0.20;;;;;;;5.59;100.00;102615.13;5232069;28;20372;-65
2022/12/01 11:03:21;;;;;;;0.88;0.15;;;;;;;5.59;100.00;102612.47;5234808;28;20026;-65
2022/12/01 11:05:56;;;;;;;0.38;0.10;;;;;;;5.60;100.00;102621.28;5233743;28;20064;-66
2022/12/01 11:08:43;;;;;;;1.60;0.10;;;;;;;5.60;100.00;102608.03;5231755;28;20025;-65
2022/12/01 11:11:37;;;;;;;0.00;0.00;;;;;;;5.62;100.00;102607.09;5233083;28;20035;-65
2022/12/01 11:14:21;;;;;;;0.38;0.03;;;;;;;5.63;100.00;102608.81;5231397;28;20480;-66
2022/12/01 11:16:53;;;;;;;0.90;0.10;;;;;;;5.63;100.00;102606.19;5229254;28;20033;-66
2022/12/01 11:19:33;;;;;;;0.93;0.20;;;;;;;5.63;100.00;102606.19;5236879;28;20475;-66
2022/12/01 11:22:18;;;;;;;0.65;0.10;;;;;;;5.65;100.00;102603.50;5232024;28;20037;-65
2022/12/01 11:24:52;;;;;;;0.13;0.05;;;;;;;5.66;100.00;102600.81;5228946;28;20687;-65
2022/12/01 11:27:27;;;;;;;0.88;0.17;;;;;;;5.69;100.00;102605.13;5226521;28;20033;-66
2022/12/01 11:30:18;;;;;;;0.75;0.20;;;;;;;5.73;100.00;102595.34;5230650;28;20076;-65
2022/12/01 11:32:54;;;;;;;0.13;0.00;;;;;;;5.74;100.00;102595.28;5225455;28;20060;-65
2022/12/01 11:35:30;;;;;;;0.15;0.00;;;;;;;5.78;100.00;102594.28;5228153;28;20025;-65
2022/12/01 11:38:05;;;;;;;0.88;0.20;;;;;;;5.84;100.00;102590.59;5226188;28;20078;-66
2022/12/01 11:40:48;;;;;;;0.32;0.10;;;;;;;5.90;100.00;102595.72;5228634;28;20036;-65
2022/12/01 11:43:36;;;;;;;0.38;0.10;;;;;;;5.91;100.00;102578.94;5228316;28;20072;-66
2022/12/01 11:46:08;;;;;;;0.50;0.13;;;;;;;5.96;100.00;102589.41;5224013;28;20083;-65
2022/12/01 11:48:40;;;;;;;0.40;0.10;;;;;;;5.98;100.00;102576.97;5227104;28;20075;-65
2022/12/01 11:51:27;;;;;;;1.67;0.30;;;;;;;6.02;100.00;102581.28;5230732;28;20041;-65
2022/12/01 11:54:24;;;;;;;0.80;0.20;;;;;;;6.04;100.00;102580.34;5235495;28;20053;-66
2022/12/01 11:56:55;;;;;;;0.95;0.20;;;;;;;6.05;100.00;102571.47;5226394;28;20033;-66
2022/12/01 11:59:27;;;;;;;0.60;0.10;;;;;;;6.07;100.00;102574.06;5227356;28;20025;-66
2022/12/01 12:02:17;;;;;;;1.25;0.20;;;;;;;6.09;100.00;102573.09;5224000;28;20483;-66
2022/12/01 12:05:18;;;;;;;1.05;0.10;;;;;;;6.12;100.00;102565.97;5229617;28;20040;-66
2022/12/01 12:08:09;;;;;;;0.73;0.00;;;;;;;6.13;100.00;102563.28;5231299;28;20106;-66
2022/12/01 12:10:58;;;;;;;0.10;0.00;;;;;;;6.15;100.00;102571.19;5235673;28;20525;-65